sensor_id;sensor_type;location;lat;lon;timestamp;P1;durP1;ratioP1;P2;durP2;ratioP2
1414;SDS011;702;49.466;11.086;2023-02-28T00:00:37;3.40;;;3.10;;
1414;SDS011;702;49.466;11.086;2023-02-28T00:03:05;4.40;;;3.40;;
1414;SDS011;702;49.466;11.086;2023-02-28T00:05:33;4.67;;;3.63;;
1414;SDS011;702;49.466;11.086;2023-02-28T00:08:01;3.37;;;3.07;;
1414;SDS011;702;49.466;11.086;2023-02-28T00:10:29;4.10;;;3.70;;
1414;SDS011;702;49.466;11.086;2023-02-28T00:12:59;3.63;;;3.33;;
1414;SDS011;702;49.466;11.086;2023-02-28T00:15:28;8.60;;;3.80;;
1414;SDS011;702;49.466;11.086;2023-02-28T00:17:55;5.70;;;3.40;;
1414;SDS011;702;49.466;11.086;2023-02-28T00:20:23;4.30;;;3.67;;
1414;SDS011;702;49.466;11.086;2023-02-28T00:22:52;4.90;;;3.43;;
1414;SDS011;702;49.466;11.086;2023-02-28T00:25:22;6.60;;;3.90;;
1414;SDS011;702;49.466;11.086;2023-02-28T00:27:51;6.30;;;4.17;;
1414;SDS011;702;49.466;11.086;2023-02-28T00:30:19;5.30;;;3.30;;
1414;SDS011;702;49.466;11.086;2023-02-28T00:32:48;4.80;;;3.80;;
1414;SDS011;702;49.466;11.086;2023-02-28T00:35:16;4.97;;;3.90;;
1414;SDS011;702;49.466;11.086;2023-02-28T00:37:44;4.03;;;3.17;;
1414;SDS011;702;49.466;11.086;2023-02-28T00:40:11;4.17;;;3.87;;
1414;SDS011;702;49.466;11.086;2023-02-28T00:42:40;4.40;;;3.23;;
1414;SDS011;702;49.466;11.086;2023-02-28T00:45:07;4.37;;;3.90;;
1414;SDS011;702;49.466;11.086;2023-02-28T00:47:35;5.17;;;3.97;;
1414;SDS011;702;49.466;11.086;2023-02-28T00:50:03;5.00;;;3.47;;
1414;SDS011;702;49.466;11.086;2023-02-28T00:52:31;4.20;;;3.70;;
1414;SDS011;702;49.466;11.086;2023-02-28T00:54:59;4.93;;;4.20;;
1414;SDS011;702;49.466;11.086;2023-02-28T00:57:26;7.00;;;4.50;;
1414;SDS011;702;49.466;11.086;2023-02-28T00:59:55;6.27;;;4.50;;
1414;SDS011;702;49.466;11.086;2023-02-28T01:02:22;5.30;;;4.43;;
1414;SDS011;702;49.466;11.086;2023-02-28T01:04:49;5.00;;;4.00;;
1414;SDS011;702;49.466;11.086;2023-02-28T01:07:17;6.37;;;4.53;;
1414;SDS011;702;49.466;11.086;2023-02-28T01:09:44;7.40;;;3.80;;
1414;SDS011;702;49.466;11.086;2023-02-28T01:12:11;4.60;;;3.73;;
1414;SDS011;702;49.466;11.086;2023-02-28T01:14:39;6.13;;;4.50;;
1414;SDS011;702;49.466;11.086;2023-02-28T01:17:07;4.50;;;4.10;;
1414;SDS011;702;49.466;11.086;2023-02-28T01:19:35;5.10;;;4.10;;
1414;SDS011;702;49.466;11.086;2023-02-28T01:22:02;4.70;;;4.30;;
1414;SDS011;702;49.466;11.086;2023-02-28T01:24:31;5.80;;;3.90;;
1414;SDS011;702;49.466;11.086;2023-02-28T01:26:59;5.30;;;4.40;;
1414;SDS011;702;49.466;11.086;2023-02-28T01:29:26;5.70;;;3.90;;
1414;SDS011;702;49.466;11.086;2023-02-28T01:31:53;4.80;;;3.90;;
1414;SDS011;702;49.466;11.086;2023-02-28T01:34:23;6.10;;;4.00;;
1414;SDS011;702;49.466;11.086;2023-02-28T01:36:50;4.67;;;4.20;;
1414;SDS011;702;49.466;11.086;2023-02-28T01:39:18;5.90;;;4.33;;
1414;SDS011;702;49.466;11.086;2023-02-28T01:41:45;6.13;;;4.07;;
1414;SDS011;702;49.466;11.086;2023-02-28T01:47:29;6.90;;;3.90;;
1414;SDS011;702;49.466;11.086;2023-02-28T01:50:01;6.30;;;4.30;;
1414;SDS011;702;49.466;11.086;2023-02-28T01:52:33;7.27;;;4.93;;
1414;SDS011;702;49.466;11.086;2023-02-28T01:55:04;6.23;;;4.30;;
1414;SDS011;702;49.466;11.086;2023-02-28T01:57:34;5.40;;;4.23;;
1414;SDS011;702;49.466;11.086;2023-02-28T02:00:05;5.60;;;4.23;;
1414;SDS011;702;49.466;11.086;2023-02-28T02:02:38;5.83;;;4.30;;
1414;SDS011;702;49.466;11.086;2023-02-28T02:05:10;7.50;;;4.53;;
1414;SDS011;702;49.466;11.086;2023-02-28T02:07:43;4.50;;;3.80;;
1414;SDS011;702;49.466;11.086;2023-02-28T02:10:12;7.40;;;4.40;;
1414;SDS011;702;49.466;11.086;2023-02-28T02:15:57;5.07;;;4.00;;
1414;SDS011;702;49.466;11.086;2023-02-28T02:18:32;4.90;;;4.40;;
1414;SDS011;702;49.466;11.086;2023-02-28T02:24:46;5.20;;;4.10;;
1414;SDS011;702;49.466;11.086;2023-02-28T02:27:39;4.40;;;3.93;;
1414;SDS011;702;49.466;11.086;2023-02-28T02:37:21;6.80;;;4.17;;
1414;SDS011;702;49.466;11.086;2023-02-28T02:39:59;5.83;;;3.63;;
1414;SDS011;702;49.466;11.086;2023-02-28T02:42:35;7.07;;;4.73;;
1414;SDS011;702;49.466;11.086;2023-02-28T02:45:09;5.70;;;4.33;;
1414;SDS011;702;49.466;11.086;2023-02-28T02:47:42;5.63;;;4.60;;
1414;SDS011;702;49.466;11.086;2023-02-28T02:50:14;5.53;;;5.00;;
1414;SDS011;702;49.466;11.086;2023-02-28T02:52:48;5.30;;;4.80;;
1414;SDS011;702;49.466;11.086;2023-02-28T02:55:19;6.40;;;4.13;;
1414;SDS011;702;49.466;11.086;2023-02-28T02:57:49;8.10;;;5.10;;
1414;SDS011;702;49.466;11.086;2023-02-28T03:00:22;6.23;;;4.70;;
1414;SDS011;702;49.466;11.086;2023-02-28T03:02:53;7.70;;;5.10;;
1414;SDS011;702;49.466;11.086;2023-02-28T03:05:25;7.30;;;5.53;;
1414;SDS011;702;49.466;11.086;2023-02-28T03:07:56;7.77;;;5.17;;
1414;SDS011;702;49.466;11.086;2023-02-28T03:10:34;6.13;;;4.67;;
1414;SDS011;702;49.466;11.086;2023-02-28T03:13:21;5.37;;;4.13;;
1414;SDS011;702;49.466;11.086;2023-02-28T03:19:10;6.33;;;4.93;;
1414;SDS011;702;49.466;11.086;2023-02-28T03:22:00;6.43;;;5.30;;
1414;SDS011;702;49.466;11.086;2023-02-28T03:24:43;5.43;;;4.80;;
1414;SDS011;702;49.466;11.086;2023-02-28T03:27:17;9.73;;;6.47;;
1414;SDS011;702;49.466;11.086;2023-02-28T03:29:51;6.90;;;4.80;;
1414;SDS011;702;49.466;11.086;2023-02-28T03:32:28;8.30;;;5.90;;
1414;SDS011;702;49.466;11.086;2023-02-28T03:35:02;6.97;;;5.80;;
1414;SDS011;702;49.466;11.086;2023-02-28T03:37:37;8.10;;;5.50;;
1414;SDS011;702;49.466;11.086;2023-02-28T03:40:09;6.80;;;5.50;;
1414;SDS011;702;49.466;11.086;2023-02-28T03:42:41;7.17;;;6.07;;
1414;SDS011;702;49.466;11.086;2023-02-28T03:45:13;8.33;;;5.60;;
1414;SDS011;702;49.466;11.086;2023-02-28T03:47:45;10.13;;;6.10;;
1414;SDS011;702;49.466;11.086;2023-02-28T03:50:18;6.43;;;5.83;;
1414;SDS011;702;49.466;11.086;2023-02-28T03:52:51;8.73;;;5.70;;
1414;SDS011;702;49.466;11.086;2023-02-28T03:55:26;6.33;;;5.70;;
1414;SDS011;702;49.466;11.086;2023-02-28T03:57:57;7.47;;;6.20;;
1414;SDS011;702;49.466;11.086;2023-02-28T04:00:30;7.50;;;6.10;;
1414;SDS011;702;49.466;11.086;2023-02-28T04:03:01;7.37;;;5.90;;
1414;SDS011;702;49.466;11.086;2023-02-28T04:05:29;10.63;;;5.90;;
1414;SDS011;702;49.466;11.086;2023-02-28T04:08:04;8.50;;;5.60;;
1414;SDS011;702;49.466;11.086;2023-02-28T04:10:32;7.33;;;6.47;;
1414;SDS011;702;49.466;11.086;2023-02-28T04:13:00;8.47;;;5.70;;
1414;SDS011;702;49.466;11.086;2023-02-28T04:15:27;7.37;;;6.23;;
1414;SDS011;702;49.466;11.086;2023-02-28T04:17:54;8.37;;;6.70;;
1414;SDS011;702;49.466;11.086;2023-02-28T04:20:23;8.40;;;6.40;;
1414;SDS011;702;49.466;11.086;2023-02-28T04:22:50;8.90;;;6.20;;
1414;SDS011;702;49.466;11.086;2023-02-28T04:25:19;10.80;;;7.17;;
1414;SDS011;702;49.466;11.086;2023-02-28T04:27:46;10.80;;;6.23;;
1414;SDS011;702;49.466;11.086;2023-02-28T04:30:13;8.27;;;6.80;;
1414;SDS011;702;49.466;11.086;2023-02-28T04:32:41;9.13;;;6.33;;
1414;SDS011;702;49.466;11.086;2023-02-28T04:35:08;9.23;;;6.70;;
1414;SDS011;702;49.466;11.086;2023-02-28T04:37:35;12.10;;;6.90;;
1414;SDS011;702;49.466;11.086;2023-02-28T04:40:04;8.73;;;6.50;;
1414;SDS011;702;49.466;11.086;2023-02-28T04:42:35;6.90;;;6.20;;
1414;SDS011;702;49.466;11.086;2023-02-28T04:45:02;9.97;;;6.37;;
1414;SDS011;702;49.466;11.086;2023-02-28T04:47:30;11.77;;;7.23;;
1414;SDS011;702;49.466;11.086;2023-02-28T04:49:57;8.70;;;6.90;;
1414;SDS011;702;49.466;11.086;2023-02-28T04:52:24;7.23;;;5.70;;
1414;SDS011;702;49.466;11.086;2023-02-28T04:54:53;7.73;;;6.93;;
1414;SDS011;702;49.466;11.086;2023-02-28T04:57:21;6.77;;;5.97;;
1414;SDS011;702;49.466;11.086;2023-02-28T04:59:49;9.77;;;6.40;;
1414;SDS011;702;49.466;11.086;2023-02-28T05:02:16;8.33;;;6.40;;
1414;SDS011;702;49.466;11.086;2023-02-28T05:04:45;9.30;;;6.47;;
1414;SDS011;702;49.466;11.086;2023-02-28T05:07:13;7.53;;;6.17;;
1414;SDS011;702;49.466;11.086;2023-02-28T05:09:40;6.90;;;6.20;;
1414;SDS011;702;49.466;11.086;2023-02-28T05:12:09;8.17;;;7.37;;
1414;SDS011;702;49.466;11.086;2023-02-28T05:14:36;7.67;;;5.57;;
1414;SDS011;702;49.466;11.086;2023-02-28T05:17:04;10.80;;;6.43;;
1414;SDS011;702;49.466;11.086;2023-02-28T05:19:32;8.17;;;6.80;;
1414;SDS011;702;49.466;11.086;2023-02-28T05:21:59;7.43;;;6.47;;
1414;SDS011;702;49.466;11.086;2023-02-28T05:24:28;7.33;;;6.60;;
1414;SDS011;702;49.466;11.086;2023-02-28T05:26:55;9.60;;;6.63;;
1414;SDS011;702;49.466;11.086;2023-02-28T05:29:22;9.50;;;6.93;;
1414;SDS011;702;49.466;11.086;2023-02-28T05:31:49;9.77;;;6.60;;
1414;SDS011;702;49.466;11.086;2023-02-28T05:34:18;9.70;;;7.23;;
1414;SDS011;702;49.466;11.086;2023-02-28T05:36:45;10.57;;;7.17;;
1414;SDS011;702;49.466;11.086;2023-02-28T05:39:12;8.50;;;6.13;;
1414;SDS011;702;49.466;11.086;2023-02-28T05:41:40;11.47;;;7.77;;
1414;SDS011;702;49.466;11.086;2023-02-28T05:44:08;7.80;;;6.70;;
1414;SDS011;702;49.466;11.086;2023-02-28T05:46:35;6.83;;;5.93;;
1414;SDS011;702;49.466;11.086;2023-02-28T05:49:03;10.40;;;6.00;;
1414;SDS011;702;49.466;11.086;2023-02-28T05:51:32;8.70;;;7.07;;
1414;SDS011;702;49.466;11.086;2023-02-28T05:54:02;6.63;;;5.70;;
1414;SDS011;702;49.466;11.086;2023-02-28T05:56:29;10.87;;;7.37;;
1414;SDS011;702;49.466;11.086;2023-02-28T05:58:56;8.23;;;6.50;;
1414;SDS011;702;49.466;11.086;2023-02-28T06:01:26;9.87;;;7.37;;
1414;SDS011;702;49.466;11.086;2023-02-28T06:04:01;8.20;;;6.77;;
1414;SDS011;702;49.466;11.086;2023-02-28T06:06:29;9.50;;;6.73;;
1414;SDS011;702;49.466;11.086;2023-02-28T06:08:59;7.73;;;6.80;;
1414;SDS011;702;49.466;11.086;2023-02-28T06:11:27;12.63;;;7.00;;
1414;SDS011;702;49.466;11.086;2023-02-28T06:13:55;8.37;;;6.43;;
1414;SDS011;702;49.466;11.086;2023-02-28T06:16:24;12.70;;;7.30;;
1414;SDS011;702;49.466;11.086;2023-02-28T06:18:52;13.83;;;10.10;;
1414;SDS011;702;49.466;11.086;2023-02-28T06:21:21;10.77;;;7.80;;
1414;SDS011;702;49.466;11.086;2023-02-28T06:23:50;8.03;;;7.23;;
1414;SDS011;702;49.466;11.086;2023-02-28T06:26:17;9.43;;;6.80;;
1414;SDS011;702;49.466;11.086;2023-02-28T06:28:44;8.47;;;6.93;;
1414;SDS011;702;49.466;11.086;2023-02-28T06:31:13;9.10;;;8.10;;
1414;SDS011;702;49.466;11.086;2023-02-28T06:33:42;9.70;;;7.10;;
1414;SDS011;702;49.466;11.086;2023-02-28T06:36:11;9.30;;;6.60;;
1414;SDS011;702;49.466;11.086;2023-02-28T06:38:41;9.57;;;7.10;;
1414;SDS011;702;49.466;11.086;2023-02-28T06:41:10;11.97;;;7.40;;
1414;SDS011;702;49.466;11.086;2023-02-28T06:43:39;8.97;;;6.97;;
1414;SDS011;702;49.466;11.086;2023-02-28T06:46:09;13.07;;;8.13;;
1414;SDS011;702;49.466;11.086;2023-02-28T06:48:40;11.83;;;7.40;;
1414;SDS011;702;49.466;11.086;2023-02-28T06:51:09;12.10;;;7.30;;
1414;SDS011;702;49.466;11.086;2023-02-28T06:53:39;10.20;;;7.27;;
1414;SDS011;702;49.466;11.086;2023-02-28T06:56:08;9.37;;;7.60;;
1414;SDS011;702;49.466;11.086;2023-02-28T06:58:38;8.70;;;7.80;;
1414;SDS011;702;49.466;11.086;2023-02-28T07:01:06;9.10;;;7.50;;
1414;SDS011;702;49.466;11.086;2023-02-28T07:03:34;13.27;;;7.80;;
1414;SDS011;702;49.466;11.086;2023-02-28T07:06:04;10.30;;;8.00;;
1414;SDS011;702;49.466;11.086;2023-02-28T07:08:31;10.63;;;7.50;;
1414;SDS011;702;49.466;11.086;2023-02-28T07:10:59;9.40;;;7.10;;
1414;SDS011;702;49.466;11.086;2023-02-28T07:13:28;13.67;;;8.57;;
1414;SDS011;702;49.466;11.086;2023-02-28T07:15:56;11.80;;;10.10;;
1414;SDS011;702;49.466;11.086;2023-02-28T07:18:25;9.73;;;7.97;;
1414;SDS011;702;49.466;11.086;2023-02-28T07:20:52;11.37;;;7.67;;
1414;SDS011;702;49.466;11.086;2023-02-28T07:23:20;9.20;;;7.50;;
1414;SDS011;702;49.466;11.086;2023-02-28T07:25:47;13.87;;;8.10;;
1414;SDS011;702;49.466;11.086;2023-02-28T07:28:16;9.80;;;7.53;;
1414;SDS011;702;49.466;11.086;2023-02-28T07:30:45;13.07;;;8.10;;
1414;SDS011;702;49.466;11.086;2023-02-28T07:33:14;10.20;;;7.57;;
1414;SDS011;702;49.466;11.086;2023-02-28T07:35:41;15.07;;;7.20;;
1414;SDS011;702;49.466;11.086;2023-02-28T07:38:09;9.83;;;7.30;;
1414;SDS011;702;49.466;11.086;2023-02-28T07:40:38;13.17;;;8.17;;
1414;SDS011;702;49.466;11.086;2023-02-28T07:43:06;10.83;;;8.20;;
1414;SDS011;702;49.466;11.086;2023-02-28T07:45:33;16.60;;;8.77;;
1414;SDS011;702;49.466;11.086;2023-02-28T07:48:02;11.30;;;7.87;;
1414;SDS011;702;49.466;11.086;2023-02-28T07:50:29;10.63;;;7.30;;
1414;SDS011;702;49.466;11.086;2023-02-28T07:52:57;12.80;;;9.10;;
1414;SDS011;702;49.466;11.086;2023-02-28T07:55:24;11.93;;;8.47;;
1414;SDS011;702;49.466;11.086;2023-02-28T07:57:52;11.17;;;8.50;;
1414;SDS011;702;49.466;11.086;2023-02-28T08:00:19;13.30;;;9.33;;
1414;SDS011;702;49.466;11.086;2023-02-28T08:02:47;12.33;;;9.27;;
1414;SDS011;702;49.466;11.086;2023-02-28T08:05:15;12.83;;;8.50;;
1414;SDS011;702;49.466;11.086;2023-02-28T08:07:43;19.10;;;9.17;;
1414;SDS011;702;49.466;11.086;2023-02-28T08:10:12;12.97;;;8.50;;
1414;SDS011;702;49.466;11.086;2023-02-28T08:12:40;12.00;;;8.73;;
1414;SDS011;702;49.466;11.086;2023-02-28T08:15:07;11.73;;;9.20;;
1414;SDS011;702;49.466;11.086;2023-02-28T08:17:35;11.20;;;8.80;;
1414;SDS011;702;49.466;11.086;2023-02-28T08:20:03;10.97;;;8.30;;
1414;SDS011;702;49.466;11.086;2023-02-28T08:22:33;13.10;;;8.43;;
1414;SDS011;702;49.466;11.086;2023-02-28T08:25:00;10.27;;;8.67;;
1414;SDS011;702;49.466;11.086;2023-02-28T08:27:27;18.00;;;10.07;;
1414;SDS011;702;49.466;11.086;2023-02-28T08:29:54;17.70;;;9.53;;
1414;SDS011;702;49.466;11.086;2023-02-28T08:32:22;11.23;;;8.80;;
1414;SDS011;702;49.466;11.086;2023-02-28T08:34:49;15.33;;;9.37;;
1414;SDS011;702;49.466;11.086;2023-02-28T08:37:16;10.80;;;7.97;;
1414;SDS011;702;49.466;11.086;2023-02-28T08:39:46;12.10;;;8.60;;
1414;SDS011;702;49.466;11.086;2023-02-28T08:42:13;12.70;;;9.30;;
1414;SDS011;702;49.466;11.086;2023-02-28T08:44:40;10.53;;;8.70;;
1414;SDS011;702;49.466;11.086;2023-02-28T08:47:08;13.10;;;8.77;;
1414;SDS011;702;49.466;11.086;2023-02-28T08:49:36;10.43;;;8.40;;
1414;SDS011;702;49.466;11.086;2023-02-28T08:52:03;10.70;;;8.83;;
1414;SDS011;702;49.466;11.086;2023-02-28T08:54:31;13.60;;;9.67;;
1414;SDS011;702;49.466;11.086;2023-02-28T08:57:00;12.20;;;8.50;;
1414;SDS011;702;49.466;11.086;2023-02-28T08:59:29;12.73;;;9.53;;
1414;SDS011;702;49.466;11.086;2023-02-28T09:01:56;12.83;;;10.37;;
1414;SDS011;702;49.466;11.086;2023-02-28T09:04:24;11.20;;;9.17;;
1414;SDS011;702;49.466;11.086;2023-02-28T09:06:51;14.27;;;10.57;;
1414;SDS011;702;49.466;11.086;2023-02-28T09:09:18;11.80;;;8.90;;
1414;SDS011;702;49.466;11.086;2023-02-28T09:11:46;11.40;;;9.03;;
1414;SDS011;702;49.466;11.086;2023-02-28T09:14:14;13.20;;;9.30;;
1414;SDS011;702;49.466;11.086;2023-02-28T09:16:42;13.10;;;10.00;;
1414;SDS011;702;49.466;11.086;2023-02-28T09:19:10;15.17;;;9.67;;
1414;SDS011;702;49.466;11.086;2023-02-28T09:21:37;12.77;;;9.47;;
1414;SDS011;702;49.466;11.086;2023-02-28T09:24:05;8.03;;;7.20;;
1414;SDS011;702;49.466;11.086;2023-02-28T09:26:34;12.97;;;9.60;;
1414;SDS011;702;49.466;11.086;2023-02-28T09:29:01;16.97;;;8.60;;
1414;SDS011;702;49.466;11.086;2023-02-28T09:31:30;10.87;;;8.70;;
1414;SDS011;702;49.466;11.086;2023-02-28T09:33:58;12.00;;;8.83;;
1414;SDS011;702;49.466;11.086;2023-02-28T09:36:26;9.10;;;8.20;;
1414;SDS011;702;49.466;11.086;2023-02-28T09:38:55;12.53;;;9.03;;
1414;SDS011;702;49.466;11.086;2023-02-28T09:41:23;13.20;;;9.40;;
1414;SDS011;702;49.466;11.086;2023-02-28T09:43:53;14.23;;;7.90;;
1414;SDS011;702;49.466;11.086;2023-02-28T09:46:28;10.53;;;8.00;;
1414;SDS011;702;49.466;11.086;2023-02-28T09:49:02;12.67;;;8.10;;
1414;SDS011;702;49.466;11.086;2023-02-28T09:51:44;13.80;;;9.97;;
1414;SDS011;702;49.466;11.086;2023-02-28T09:54:19;10.47;;;8.40;;
1414;SDS011;702;49.466;11.086;2023-02-28T09:56:48;12.70;;;9.10;;
1414;SDS011;702;49.466;11.086;2023-02-28T09:59:25;11.00;;;8.57;;
1414;SDS011;702;49.466;11.086;2023-02-28T10:02:09;12.17;;;8.43;;
1414;SDS011;702;49.466;11.086;2023-02-28T10:04:57;11.30;;;9.40;;
1414;SDS011;702;49.466;11.086;2023-02-28T10:07:36;12.17;;;8.77;;
1414;SDS011;702;49.466;11.086;2023-02-28T10:10:17;11.00;;;8.17;;
1414;SDS011;702;49.466;11.086;2023-02-28T10:12:50;11.73;;;8.07;;
1414;SDS011;702;49.466;11.086;2023-02-28T10:15:23;11.27;;;8.03;;
1414;SDS011;702;49.466;11.086;2023-02-28T10:17:56;10.70;;;7.83;;
1414;SDS011;702;49.466;11.086;2023-02-28T10:20:26;11.80;;;8.10;;
1414;SDS011;702;49.466;11.086;2023-02-28T10:22:58;11.30;;;8.33;;
1414;SDS011;702;49.466;11.086;2023-02-28T10:25:33;11.00;;;8.13;;
1414;SDS011;702;49.466;11.086;2023-02-28T10:28:05;10.00;;;8.43;;
1414;SDS011;702;49.466;11.086;2023-02-28T10:30:38;11.90;;;7.20;;
1414;SDS011;702;49.466;11.086;2023-02-28T10:33:13;10.77;;;7.50;;
1414;SDS011;702;49.466;11.086;2023-02-28T10:35:50;10.97;;;8.10;;
1414;SDS011;702;49.466;11.086;2023-02-28T10:38:19;11.93;;;8.60;;
1414;SDS011;702;49.466;11.086;2023-02-28T10:40:49;22.23;;;9.33;;
1414;SDS011;702;49.466;11.086;2023-02-28T10:43:20;10.43;;;7.40;;
1414;SDS011;702;49.466;11.086;2023-02-28T10:45:54;9.37;;;6.73;;
1414;SDS011;702;49.466;11.086;2023-02-28T10:48:37;9.07;;;7.67;;
1414;SDS011;702;49.466;11.086;2023-02-28T10:51:07;12.70;;;8.43;;
1414;SDS011;702;49.466;11.086;2023-02-28T10:53:38;12.97;;;9.60;;
1414;SDS011;702;49.466;11.086;2023-02-28T10:56:16;9.10;;;7.60;;
1414;SDS011;702;49.466;11.086;2023-02-28T10:58:52;9.40;;;7.60;;
1414;SDS011;702;49.466;11.086;2023-02-28T11:01:22;9.57;;;8.00;;
1414;SDS011;702;49.466;11.086;2023-02-28T11:03:53;12.47;;;7.90;;
1414;SDS011;702;49.466;11.086;2023-02-28T11:06:21;17.90;;;8.70;;
1414;SDS011;702;49.466;11.086;2023-02-28T11:08:51;8.80;;;7.90;;
1414;SDS011;702;49.466;11.086;2023-02-28T11:11:21;9.30;;;7.43;;
1414;SDS011;702;49.466;11.086;2023-02-28T11:13:51;10.57;;;6.90;;
1414;SDS011;702;49.466;11.086;2023-02-28T11:16:22;8.30;;;7.40;;
1414;SDS011;702;49.466;11.086;2023-02-28T11:19:00;10.70;;;7.87;;
1414;SDS011;702;49.466;11.086;2023-02-28T11:21:29;8.87;;;7.80;;
1414;SDS011;702;49.466;11.086;2023-02-28T11:24:00;9.53;;;7.63;;
1414;SDS011;702;49.466;11.086;2023-02-28T11:26:37;10.67;;;7.20;;
1414;SDS011;702;49.466;11.086;2023-02-28T11:29:12;13.70;;;7.90;;
1414;SDS011;702;49.466;11.086;2023-02-28T11:32:16;11.33;;;7.87;;
1414;SDS011;702;49.466;11.086;2023-02-28T11:34:59;17.27;;;8.43;;
1414;SDS011;702;49.466;11.086;2023-02-28T11:37:30;10.37;;;7.47;;
1414;SDS011;702;49.466;11.086;2023-02-28T11:39:58;8.57;;;7.17;;
1414;SDS011;702;49.466;11.086;2023-02-28T11:42:32;10.27;;;8.20;;
1414;SDS011;702;49.466;11.086;2023-02-28T11:45:22;12.93;;;8.80;;
1414;SDS011;702;49.466;11.086;2023-02-28T11:48:09;10.63;;;8.20;;
1414;SDS011;702;49.466;11.086;2023-02-28T11:50:49;12.40;;;8.17;;
1414;SDS011;702;49.466;11.086;2023-02-28T11:53:33;9.50;;;8.10;;
1414;SDS011;702;49.466;11.086;2023-02-28T11:56:25;11.60;;;7.97;;
1414;SDS011;702;49.466;11.086;2023-02-28T11:59:03;10.60;;;7.57;;
1414;SDS011;702;49.466;11.086;2023-02-28T12:01:57;10.43;;;7.77;;
1414;SDS011;702;49.466;11.086;2023-02-28T12:04:47;10.17;;;7.50;;
1414;SDS011;702;49.466;11.086;2023-02-28T12:07:23;11.70;;;8.63;;
1414;SDS011;702;49.466;11.086;2023-02-28T12:09:59;9.77;;;8.30;;
1414;SDS011;702;49.466;11.086;2023-02-28T12:12:38;8.37;;;7.57;;
1414;SDS011;702;49.466;11.086;2023-02-28T12:15:17;10.97;;;8.83;;
1414;SDS011;702;49.466;11.086;2023-02-28T12:17:59;9.50;;;7.80;;
1414;SDS011;702;49.466;11.086;2023-02-28T12:20:41;8.60;;;7.40;;
1414;SDS011;702;49.466;11.086;2023-02-28T12:23:25;12.33;;;8.50;;
1414;SDS011;702;49.466;11.086;2023-02-28T12:26:11;9.03;;;7.27;;
1414;SDS011;702;49.466;11.086;2023-02-28T12:28:47;14.30;;;9.27;;
1414;SDS011;702;49.466;11.086;2023-02-28T12:31:20;10.67;;;8.10;;
1414;SDS011;702;49.466;11.086;2023-02-28T12:33:51;13.17;;;8.53;;
1414;SDS011;702;49.466;11.086;2023-02-28T12:36:23;14.37;;;8.30;;
1414;SDS011;702;49.466;11.086;2023-02-28T12:38:55;11.50;;;8.30;;
1414;SDS011;702;49.466;11.086;2023-02-28T12:41:29;9.70;;;7.40;;
1414;SDS011;702;49.466;11.086;2023-02-28T12:44:04;10.47;;;7.50;;
1414;SDS011;702;49.466;11.086;2023-02-28T12:46:37;8.30;;;7.50;;
1414;SDS011;702;49.466;11.086;2023-02-28T12:49:09;10.17;;;8.13;;
1414;SDS011;702;49.466;11.086;2023-02-28T12:51:42;9.50;;;8.23;;
1414;SDS011;702;49.466;11.086;2023-02-28T12:54:14;9.10;;;7.50;;
1414;SDS011;702;49.466;11.086;2023-02-28T12:56:48;16.70;;;7.87;;
1414;SDS011;702;49.466;11.086;2023-02-28T12:59:25;16.13;;;9.23;;
1414;SDS011;702;49.466;11.086;2023-02-28T13:02:19;12.13;;;7.77;;
1414;SDS011;702;49.466;11.086;2023-02-28T13:05:30;11.77;;;8.07;;
1414;SDS011;702;49.466;11.086;2023-02-28T13:08:37;11.53;;;7.93;;
1414;SDS011;702;49.466;11.086;2023-02-28T13:11:31;11.17;;;9.00;;
1414;SDS011;702;49.466;11.086;2023-02-28T13:14:02;10.73;;;8.30;;
1414;SDS011;702;49.466;11.086;2023-02-28T13:16:48;11.70;;;8.43;;
1414;SDS011;702;49.466;11.086;2023-02-28T13:19:23;11.10;;;8.40;;
1414;SDS011;702;49.466;11.086;2023-02-28T13:21:54;15.20;;;8.97;;
1414;SDS011;702;49.466;11.086;2023-02-28T13:24:36;11.20;;;9.00;;
1414;SDS011;702;49.466;11.086;2023-02-28T13:33:32;13.23;;;9.77;;
1414;SDS011;702;49.466;11.086;2023-02-28T13:36:19;12.70;;;9.53;;
1414;SDS011;702;49.466;11.086;2023-02-28T13:38:52;11.87;;;9.00;;
1414;SDS011;702;49.466;11.086;2023-02-28T13:44:17;9.53;;;7.90;;
1414;SDS011;702;49.466;11.086;2023-02-28T13:50:15;11.67;;;9.67;;
1414;SDS011;702;49.466;11.086;2023-02-28T13:53:19;19.77;;;9.97;;
1414;SDS011;702;49.466;11.086;2023-02-28T13:56:20;10.60;;;8.90;;
1414;SDS011;702;49.466;11.086;2023-02-28T13:59:00;10.40;;;8.77;;
1414;SDS011;702;49.466;11.086;2023-02-28T14:01:47;11.67;;;9.93;;
1414;SDS011;702;49.466;11.086;2023-02-28T14:04:43;11.23;;;9.63;;
1414;SDS011;702;49.466;11.086;2023-02-28T14:07:17;13.13;;;8.80;;
1414;SDS011;702;49.466;11.086;2023-02-28T14:09:53;12.00;;;9.50;;
1414;SDS011;702;49.466;11.086;2023-02-28T14:15:28;12.50;;;9.30;;
1414;SDS011;702;49.466;11.086;2023-02-28T14:18:27;12.90;;;9.67;;
1414;SDS011;702;49.466;11.086;2023-02-28T14:21:00;11.47;;;10.13;;
1414;SDS011;702;49.466;11.086;2023-02-28T14:27:14;10.73;;;8.53;;
1414;SDS011;702;49.466;11.086;2023-02-28T14:36:39;10.00;;;8.43;;
1414;SDS011;702;49.466;11.086;2023-02-28T14:39:11;15.90;;;10.87;;
1414;SDS011;702;49.466;11.086;2023-02-28T14:41:41;13.93;;;9.30;;
1414;SDS011;702;49.466;11.086;2023-02-28T14:44:14;10.40;;;8.90;;
1414;SDS011;702;49.466;11.086;2023-02-28T14:46:44;13.27;;;9.67;;
1414;SDS011;702;49.466;11.086;2023-02-28T14:49:17;13.67;;;9.30;;
1414;SDS011;702;49.466;11.086;2023-02-28T14:51:47;12.47;;;10.03;;
1414;SDS011;702;49.466;11.086;2023-02-28T14:54:17;13.57;;;10.30;;
1414;SDS011;702;49.466;11.086;2023-02-28T14:56:49;11.43;;;10.10;;
1414;SDS011;702;49.466;11.086;2023-02-28T14:59:23;11.00;;;8.80;;
1414;SDS011;702;49.466;11.086;2023-02-28T15:04:53;12.40;;;10.10;;
1414;SDS011;702;49.466;11.086;2023-02-28T15:07:23;12.13;;;9.90;;
1414;SDS011;702;49.466;11.086;2023-02-28T15:10:15;15.43;;;10.50;;
1414;SDS011;702;49.466;11.086;2023-02-28T15:12:53;11.63;;;10.17;;
1414;SDS011;702;49.466;11.086;2023-02-28T15:15:23;11.60;;;9.80;;
1414;SDS011;702;49.466;11.086;2023-02-28T15:18:00;12.53;;;10.07;;
1414;SDS011;702;49.466;11.086;2023-02-28T15:20:33;14.70;;;10.13;;
1414;SDS011;702;49.466;11.086;2023-02-28T15:23:01;10.70;;;9.60;;
1414;SDS011;702;49.466;11.086;2023-02-28T15:25:29;13.43;;;10.03;;
1414;SDS011;702;49.466;11.086;2023-02-28T15:27:57;14.10;;;10.00;;
1414;SDS011;702;49.466;11.086;2023-02-28T15:30:25;15.27;;;10.23;;
1414;SDS011;702;49.466;11.086;2023-02-28T15:33:02;13.63;;;9.90;;
1414;SDS011;702;49.466;11.086;2023-02-28T15:35:35;12.63;;;10.53;;
1414;SDS011;702;49.466;11.086;2023-02-28T15:38:03;14.07;;;10.33;;
1414;SDS011;702;49.466;11.086;2023-02-28T15:40:42;12.47;;;10.20;;
1414;SDS011;702;49.466;11.086;2023-02-28T15:43:14;10.83;;;9.70;;
1414;SDS011;702;49.466;11.086;2023-02-28T15:45:44;11.73;;;9.33;;
1414;SDS011;702;49.466;11.086;2023-02-28T15:48:16;12.50;;;9.70;;
1414;SDS011;702;49.466;11.086;2023-02-28T15:50:48;11.77;;;10.57;;
1414;SDS011;702;49.466;11.086;2023-02-28T15:53:19;12.20;;;10.90;;
1414;SDS011;702;49.466;11.086;2023-02-28T15:55:54;26.43;;;11.63;;
1414;SDS011;702;49.466;11.086;2023-02-28T15:58:25;11.63;;;9.77;;
1414;SDS011;702;49.466;11.086;2023-02-28T16:01:01;14.90;;;10.47;;
1414;SDS011;702;49.466;11.086;2023-02-28T16:03:38;10.77;;;8.83;;
1414;SDS011;702;49.466;11.086;2023-02-28T16:09:10;12.17;;;9.37;;
1414;SDS011;702;49.466;11.086;2023-02-28T16:11:41;13.00;;;10.77;;
1414;SDS011;702;49.466;11.086;2023-02-28T16:14:15;13.40;;;10.53;;
1414;SDS011;702;49.466;11.086;2023-02-28T16:16:46;13.30;;;9.70;;
1414;SDS011;702;49.466;11.086;2023-02-28T16:19:17;16.57;;;10.97;;
1414;SDS011;702;49.466;11.086;2023-02-28T16:21:45;13.20;;;9.50;;
1414;SDS011;702;49.466;11.086;2023-02-28T16:24:13;14.00;;;9.53;;
1414;SDS011;702;49.466;11.086;2023-02-28T16:26:41;18.03;;;11.03;;
1414;SDS011;702;49.466;11.086;2023-02-28T16:29:13;13.47;;;10.43;;